Time;durP1;ratioP1;P1;durP2;ratioP2;P2;SDS_P1;SDS_P2;PMS_P1;PMS_P2;Temp;Humidity;BMP_temperature;BMP_pressure;BME280_temperature;BME280_humidity;BME280_pressure;Samples;Min_cycle;Max_cycle;Signal;HPM_P1;HPM_P2
2022/01/03 00:01:34;;;;;;;65.13;18.17;;;;;;;1.78;81.12;93815.41;5108787;28;20035;-39
2022/01/03 00:04:00;;;;;;;105.28;23.20;;;;;;;1.69;81.41;93801.94;5106278;28;20408;-41
2022/01/03 00:06:26;;;;;;;84.72;28.05;;;;;;;1.52;80.65;93798.34;5104108;28;20011;-42
2022/01/03 00:08:51;;;;;;;81.85;25.25;;;;;;;1.31;81.96;93802.38;5108142;28;20109;-44
2022/01/03 00:11:19;;;;;;;60.13;17.05;;;;;;;1.43;81.54;93799.25;5108474;28;20042;-41
2022/01/03 00:13:47;;;;;;;66.78;22.40;;;;;;;1.38;81.54;93789.09;5108299;28;20594;-43
2022/01/03 00:16:13;;;;;;;45.60;15.50;;;;;;;1.40;81.55;93775.75;5107888;28;20043;-43
2022/01/03 00:18:40;;;;;;;88.75;16.15;;;;;;;1.45;80.59;93779.75;5105835;28;20051;-42
2022/01/03 00:21:16;;;;;;;93.50;20.85;;;;;;;1.53;80.54;93781.56;5108534;28;20571;-42
2022/01/03 00:23:52;;;;;;;90.70;19.83;;;;;;;1.46;80.61;93770.34;5108563;28;20050;-43
2022/01/03 00:26:25;;;;;;;95.10;21.20;;;;;;;1.52;81.57;93758.28;5108454;28;20027;-44
2022/01/03 00:29:00;;;;;;;147.77;25.15;;;;;;;1.66;81.50;93755.91;5108688;28;20514;-41
2022/01/03 00:31:36;;;;;;;113.28;23.30;;;;;;;1.51;81.83;93756.81;5108922;28;20027;-41
2022/01/03 00:34:04;;;;;;;124.32;21.60;;;;;;;1.40;82.24;93750.53;5108406;28;20031;-42
2022/01/03 00:36:30;;;;;;;59.90;12.75;;;;;;;1.51;81.61;93745.19;5108416;28;20772;-41
2022/01/03 00:38:56;;;;;;;115.80;13.32;;;;;;;1.35;82.06;93730.22;5108629;28;20027;-41
2022/01/03 00:41:22;;;;;;;177.82;14.95;;;;;;;1.46;83.25;93749.34;5108988;28;20011;-42
2022/01/03 00:43:51;;;;;;;157.70;14.23;;;;;;;1.39;83.06;93743.56;5107564;28;20020;-42
2022/01/03 00:46:17;;;;;;;80.47;12.10;;;;;;;1.47;82.10;93745.38;5108905;28;20020;-41
2022/01/03 00:48:43;;;;;;;60.90;8.88;;;;;;;1.12;82.69;93746.81;5110104;28;20034;-40
2022/01/03 00:51:09;;;;;;;113.85;10.48;;;;;;;1.05;83.50;93739.84;5109668;28;20016;-39
2022/01/03 00:53:34;;;;;;;48.88;9.85;;;;;;;1.05;83.02;93739.09;5112901;28;20022;-40
2022/01/03 00:56:02;;;;;;;108.75;10.35;;;;;;;1.01;83.09;93733.13;5113416;28;20011;-40
2022/01/03 00:58:30;;;;;;;73.22;9.38;;;;;;;1.18;83.15;93734.75;5112926;28;20023;-41
2022/01/03 01:00:56;;;;;;;45.50;8.10;;;;;;;1.16;82.29;93734.50;5111285;28;20039;-40
2022/01/03 01:03:28;;;;;;;35.13;9.43;;;;;;;1.12;82.73;93728.53;5113151;28;20651;-41
2022/01/03 01:05:54;;;;;;;54.38;12.48;;;;;;;0.92;83.04;93730.56;5111709;28;20027;-41
2022/01/03 01:08:26;;;;;;;79.07;17.88;;;;;;;0.96;82.14;93728.34;5113322;28;20420;-38
2022/01/03 01:10:51;;;;;;;47.35;15.25;;;;;;;0.81;82.13;93712.16;5113266;28;20724;-38
2022/01/03 01:13:20;;;;;;;44.75;12.90;;;;;;;0.74;82.41;93710.63;5111792;28;20110;-38
2022/01/03 01:15:46;;;;;;;38.97;12.77;;;;;;;0.92;81.69;93700.66;5110919;28;20016;-38
2022/01/03 01:18:12;;;;;;;28.85;11.07;;;;;;;0.91;81.90;93702.63;5111680;28;20764;-39
2022/01/03 01:20:39;;;;;;;39.08;13.88;;;;;;;0.93;82.47;93710.31;5112085;28;20020;-38
2022/01/03 01:23:06;;;;;;;32.75;13.38;;;;;;;0.96;82.59;93710.09;5111574;28;20059;-39
2022/01/03 01:28:02;;;;;;;34.90;9.15;;;;;;;0.72;81.60;93690.56;5112154;28;20132;-40
2022/01/03 01:30:28;;;;;;;17.88;8.50;;;;;;;0.61;82.98;93709.47;5112002;28;20098;-38
2022/01/03 01:33:30;;;;;;;20.15;8.05;;;;;;;0.68;82.12;93704.38;5110622;28;20118;-38
2022/01/03 01:35:58;;;;;;;49.85;9.25;;;;;;;0.78;82.45;93708.44;5009315;28;20108;-39
2022/01/03 01:38:30;;;;;;;41.07;13.13;;;;;;;0.77;81.86;93711.63;5094338;28;20335;-38
2022/01/03 01:40:57;;;;;;;33.10;10.77;;;;;;;0.80;82.51;93702.53;5110617;28;20020;-38
2022/01/03 01:43:32;;;;;;;33.78;10.32;;;;;;;0.54;82.35;93707.22;5110554;28;20094;-38
2022/01/03 01:45:59;;;;;;;48.72;10.15;;;;;;;0.29;84.43;93692.34;5108125;28;20015;-39
2022/01/03 01:48:25;;;;;;;45.00;9.50;;;;;;;0.64;84.26;93700.38;5111922;27;20404;-38
2022/01/03 01:50:51;;;;;;;84.72;12.73;;;;;;;0.43;84.53;93690.78;5111134;28;20019;-38
2022/01/03 01:53:24;;;;;;;69.25;12.50;;;;;;;0.74;84.65;93691.59;5109472;28;20019;-39
2022/01/03 01:55:53;;;;;;;67.72;11.02;;;;;;;0.93;84.08;93694.75;5112374;28;20474;-38
2022/01/03 01:58:35;;;;;;;69.88;8.52;;;;;;;0.72;83.88;93696.75;5110505;28;20108;-38
2022/01/03 02:01:12;;;;;;;58.10;9.38;;;;;;;0.77;83.77;93689.91;5109655;28;20043;-38
2022/01/03 02:03:47;;;;;;;27.13;7.63;;;;;;;0.85;84.05;93679.31;5109467;28;20103;-38
2022/01/03 02:06:43;;;;;;;27.13;7.93;;;;;;;0.82;82.75;93678.34;5111712;28;20019;-39
2022/01/03 02:09:11;;;;;;;84.13;8.88;;;;;;;0.82;83.12;93670.19;5109585;28;20024;-38
2022/01/03 02:11:52;;;;;;;35.80;8.68;;;;;;;0.80;83.57;93675.34;5107786;28;20023;-36
2022/01/03 02:14:19;;;;;;;29.25;8.68;;;;;;;1.09;83.99;93668.91;5109372;28;20071;-38
2022/01/03 02:16:45;;;;;;;34.00;9.90;;;;;;;0.95;82.97;93667.84;5111896;28;20027;-38
2022/01/03 02:19:12;;;;;;;26.92;10.57;;;;;;;0.44;83.77;93646.09;5111743;28;20019;-37
2022/01/03 02:21:38;;;;;;;22.85;9.88;;;;;;;0.74;84.54;93664.41;5108931;28;20019;-37
2022/01/03 02:24:04;;;;;;;58.65;10.45;;;;;;;0.71;84.00;93645.63;5111506;27;20030;-37
2022/01/03 02:26:30;;;;;;;61.83;12.60;;;;;;;0.93;82.77;93664.09;5111765;27;20050;-37
2022/01/03 02:28:56;;;;;;;25.75;9.50;;;;;;;0.83;82.53;93655.34;5111865;28;20028;-38
2022/01/03 02:31:22;;;;;;;35.22;11.43;;;;;;;0.92;82.63;93651.72;5112089;28;20106;-39
2022/01/03 02:33:48;;;;;;;30.75;8.30;;;;;;;0.89;82.12;93639.84;5112018;28;20023;-37
2022/01/03 02:36:14;;;;;;;78.43;11.88;;;;;;;0.95;82.36;93651.53;5110792;28;20463;-38
2022/01/03 02:38:39;;;;;;;74.97;12.07;;;;;;;1.04;81.88;93631.56;5111632;28;20028;-38
2022/01/03 02:41:05;;;;;;;61.60;10.95;;;;;;;0.86;82.36;93642.78;5112020;28;20023;-37
2022/01/03 02:43:30;;;;;;;50.17;10.50;;;;;;;0.97;81.45;93640.91;5111673;28;20025;-37
2022/01/03 02:45:56;;;;;;;32.05;10.52;;;;;;;0.89;82.97;93637.13;5111620;28;20020;-36
2022/01/03 02:48:22;;;;;;;57.22;11.18;;;;;;;0.95;82.89;93615.44;5111447;28;20115;-37
2022/01/03 02:50:48;;;;;;;35.53;11.30;;;;;;;1.16;81.55;93619.53;5111372;28;20028;-37
2022/01/03 02:53:13;;;;;;;47.10;11.27;;;;;;;1.11;81.40;93617.50;5111419;28;20045;-37
2022/01/03 02:55:39;;;;;;;25.20;9.73;;;;;;;1.02;81.95;93626.59;5111269;28;20496;-37
2022/01/03 02:58:08;;;;;;;12.85;7.18;;;;;;;0.82;82.08;93623.97;5111276;27;20031;-38
2022/01/03 03:00:47;;;;;;;21.38;7.72;;;;;;;0.58;82.07;93618.84;5111156;28;20039;-40
2022/01/03 03:03:14;;;;;;;26.13;11.68;;;;;;;0.33;81.96;93586.97;5111407;28;20027;-39
2022/01/03 03:05:40;;;;;;;13.07;8.65;;;;;;;0.42;82.00;93629.53;5111361;28;20019;-39
2022/01/03 03:08:05;;;;;;;15.95;8.60;;;;;;;0.58;80.84;93616.13;5111229;28;20028;-40
2022/01/03 03:10:31;;;;;;;12.25;8.30;;;;;;;0.58;80.93;93631.66;5110313;28;20103;-40
2022/01/03 03:12:56;;;;;;;11.30;7.25;;;;;;;0.67;80.54;93610.50;5109856;28;20523;-38
2022/01/03 03:15:22;;;;;;;10.00;6.65;;;;;;;0.51;80.82;93596.78;5109106;28;20698;-39
2022/01/03 03:17:48;;;;;;;10.40;6.68;;;;;;;0.23;81.61;93590.34;5109952;28;20094;-38
2022/01/03 03:20:20;;;;;;;18.50;9.13;;;;;;;0.36;81.53;93626.03;5109374;28;20054;-38
2022/01/03 03:22:49;;;;;;;21.48;8.52;;;;;;;0.51;82.84;93621.22;5110173;28;20047;-39
2022/01/03 03:25:16;;;;;;;;;;;;;;;0.61;83.09;93630.69;5110021;28;20054;-39
2022/01/03 03:27:44;;;;;;;13.45;7.38;;;;;;;0.66;82.44;93621.84;5142721;27;19911;-38
2022/01/03 03:30:31;;;;;;;17.70;9.23;;;;;;;0.35;82.68;93625.25;5109349;28;20019;-37
2022/01/03 03:33:09;;;;;;;11.20;7.85;;;;;;;0.43;83.08;93623.63;5109423;28;20030;-36
2022/01/03 03:35:35;;;;;;;11.77;7.38;;;;;;;0.43;83.17;93620.16;5109216;28;20766;-36
2022/01/03 03:38:01;;;;;;;24.67;13.35;;;;;;;0.32;83.73;93628.19;5109274;28;20499;-37
2022/01/03 03:40:26;;;;;;;24.48;13.15;;;;;;;0.47;82.83;93617.97;5109131;28;20024;-37
2022/01/03 03:42:52;;;;;;;37.58;20.90;;;;;;;0.40;82.06;93619.16;5109846;28;20039;-37
2022/01/03 03:45:18;;;;;;;29.52;15.75;;;;;;;0.56;82.39;93613.13;5110544;28;20036;-37
2022/01/03 03:47:44;;;;;;;12.73;8.18;;;;;;;0.69;82.83;93610.03;5110942;28;20031;-38
2022/01/03 03:50:10;;;;;;;15.75;9.88;;;;;;;0.70;82.84;93600.66;5110854;28;20369;-38
2022/01/03 03:52:35;;;;;;;19.63;9.18;;;;;;;0.74;82.03;93606.59;5110579;28;20016;-37
2022/01/03 03:55:01;;;;;;;21.38;7.38;;;;;;;0.73;81.72;93616.75;5110559;28;20015;-38
2022/01/03 03:57:27;;;;;;;11.95;7.30;;;;;;;0.92;81.69;93605.50;5110801;28;20057;-38
2022/01/03 03:59:52;;;;;;;24.42;11.88;;;;;;;1.00;80.59;93596.44;5110581;27;20520;-39
2022/01/03 04:02:18;;;;;;;35.63;13.90;;;;;;;0.85;80.49;93609.41;5110634;28;20444;-39
2022/01/03 04:04:43;;;;;;;29.48;14.13;;;;;;;0.75;81.64;93605.38;5110388;28;20107;-39
2022/01/03 04:07:09;;;;;;;53.45;16.05;;;;;;;0.67;81.78;93591.47;5110675;28;20042;-39
2022/01/03 04:09:35;;;;;;;57.50;21.50;;;;;;;0.74;82.28;93585.63;5110345;28;20100;-38
2022/01/03 04:12:00;;;;;;;62.88;16.38;;;;;;;0.79;81.64;93592.31;5110553;28;20039;-38
2022/01/03 04:14:26;;;;;;;43.50;13.32;;;;;;;0.81;82.42;93583.69;5110405;28;20069;-38
2022/01/03 04:16:51;;;;;;;38.72;12.00;;;;;;;0.62;82.58;93567.75;5110375;28;20055;-38
2022/01/03 04:19:17;;;;;;;32.42;12.63;;;;;;;0.85;82.66;93590.41;5110055;28;20506;-39
2022/01/03 04:21:42;;;;;;;38.33;13.68;;;;;;;0.89;83.21;93590.91;5110596;28;20027;-38
2022/01/03 04:24:10;;;;;;;35.03;13.13;;;;;;;0.91;83.23;93593.16;5110366;28;20048;-38
2022/01/03 04:26:36;;;;;;;36.45;12.85;;;;;;;1.11;82.52;93603.91;5110321;28;20016;-37
2022/01/03 04:29:03;;;;;;;37.42;15.07;;;;;;;0.91;82.81;93614.91;5114529;28;20034;-40
2022/01/03 04:31:29;;;;;;;47.65;18.83;;;;;;;0.55;82.51;93616.31;5114217;28;20030;-38
2022/01/03 04:33:56;;;;;;;40.58;19.67;;;;;;;0.58;82.89;93613.41;5114118;28;20031;-39
2022/01/03 04:36:21;;;;;;;157.30;65.93;;;;;;;0.30;83.46;93615.13;5113959;28;20016;-38
2022/01/03 04:38:47;;;;;;;231.50;91.43;;;;;;;-0.02;84.22;93618.94;5114011;28;20019;-38
2022/01/03 04:41:12;;;;;;;124.88;58.85;;;;;;;0.06;84.33;93617.31;5114270;28;20084;-38
2022/01/03 04:43:41;;;;;;;59.42;25.85;;;;;;;0.06;83.80;93622.00;5114174;28;20020;-38
2022/01/03 04:46:08;;;;;;;142.70;32.55;;;;;;;-0.18;84.35;93584.97;5113688;28;20021;-38
2022/01/03 04:48:33;;;;;;;138.23;40.40;;;;;;;0.11;84.39;93618.59;5113868;28;20092;-38
2022/01/03 04:50:59;;;;;;;116.00;30.30;;;;;;;0.21;83.74;93614.50;5114039;28;20027;-38
2022/01/03 04:53:27;;;;;;;176.82;47.97;;;;;;;0.13;82.90;93603.31;5113753;28;20023;-38
2022/01/03 04:55:52;;;;;;;221.23;38.07;;;;;;;0.32;82.33;93620.06;5113798;28;20024;-38
2022/01/03 04:58:18;;;;;;;145.82;39.53;;;;;;;0.11;82.81;93613.91;5113516;28;20030;-38
2022/01/03 05:00:43;;;;;;;93.70;23.80;;;;;;;0.26;82.36;93627.41;5113119;28;20042;-38
2022/01/03 05:03:09;;;;;;;88.72;21.40;;;;;;;0.14;82.15;93610.25;5112729;28;20042;-38
2022/01/03 05:05:35;;;;;;;93.18;24.83;;;;;;;0.14;82.36;93620.34;5113176;28;20024;-38
2022/01/03 05:08:00;;;;;;;98.35;23.05;;;;;;;0.14;82.98;93631.22;5113395;28;20027;-39
2022/01/03 05:10:26;;;;;;;96.43;23.02;;;;;;;0.22;82.53;93633.03;5112326;28;20039;-39
2022/01/03 05:12:51;;;;;;;140.50;27.35;;;;;;;0.26;83.18;93624.69;5113377;28;20035;-38
2022/01/03 05:15:17;;;;;;;127.68;28.45;;;;;;;0.20;84.11;93640.16;5113549;28;20015;-38
2022/01/03 05:17:42;;;;;;;108.05;29.75;;;;;;;0.09;83.84;93637.34;5146532;27;20020;-40
2022/01/03 05:20:09;;;;;;;118.78;42.40;;;;;;;0.19;82.84;93638.69;5113036;28;20035;-37
2022/01/03 05:22:34;;;;;;;95.55;37.22;;;;;;;-0.05;83.24;93636.19;5113541;28;20092;-37
2022/01/03 05:25:00;;;;;;;93.47;33.75;;;;;;;0.05;83.36;93636.78;5112989;28;20485;-38
2022/01/03 05:27:25;;;;;;;69.72;32.03;;;;;;;0.20;82.68;93632.00;5113390;28;20035;-39
2022/01/03 05:29:51;;;;;;;54.22;27.13;;;;;;;-0.01;82.23;93642.91;5113015;28;20024;-39
2022/01/03 05:32:16;;;;;;;49.60;21.95;;;;;;;-0.14;82.67;93617.31;5112736;28;20027;-39
2022/01/03 05:34:42;;;;;;;42.90;20.45;;;;;;;-0.09;81.99;93603.81;5113070;27;20523;-38
2022/01/03 05:37:08;;;;;;;77.80;30.25;;;;;;;-0.14;82.12;93623.50;5112853;28;20540;-38
2022/01/03 05:39:33;;;;;;;59.22;28.30;;;;;;;-0.16;82.45;93623.25;5112838;28;20627;-38
2022/01/03 05:41:59;;;;;;;46.25;19.30;;;;;;;0.01;82.02;93609.84;5112701;28;20059;-38
2022/01/03 05:44:25;;;;;;;75.65;21.48;;;;;;;0.01;82.24;93612.56;5111723;28;20030;-38
2022/01/03 05:46:51;;;;;;;54.45;21.08;;;;;;;-0.19;82.39;93599.00;5112458;28;20110;-37
2022/01/03 05:49:16;;;;;;;39.00;18.92;;;;;;;-0.01;83.28;93612.28;5112634;28;20099;-39
2022/01/03 05:51:42;;;;;;;25.73;15.73;;;;;;;0.09;82.74;93608.22;5112529;28;20019;-38
2022/01/03 05:54:08;;;;;;;24.02;15.95;;;;;;;0.00;82.86;93608.38;5111736;28;20030;-37
2022/01/03 05:56:34;;;;;;;35.85;16.92;;;;;;;-0.05;82.37;93596.22;5111766;28;20547;-39
2022/01/03 05:58:59;;;;;;;98.28;26.60;;;;;;;0.04;82.51;93610.88;5112163;28;20072;-37
2022/01/03 06:01:26;;;;;;;81.70;21.83;;;;;;;-0.27;83.98;93597.94;5112194;27;20039;-37
2022/01/03 06:03:59;;;;;;;53.92;16.58;;;;;;;-0.10;83.77;93621.34;5112656;28;20036;-37
2022/01/03 06:09:11;;;;;;;90.90;23.55;;;;;;;-0.37;84.46;93629.13;5112400;28;20522;-38
2022/01/03 06:11:37;;;;;;;64.53;20.17;;;;;;;-0.10;83.48;93629.47;5111676;28;20047;-38
2022/01/03 06:14:02;;;;;;;22.75;11.38;;;;;;;-0.48;83.93;93632.44;5111647;28;20023;-38
2022/01/03 06:16:28;;;;;;;35.72;17.90;;;;;;;-0.61;84.53;93636.69;5111948;28;20026;-38
2022/01/03 06:18:53;;;;;;;20.45;11.90;;;;;;;-0.48;85.25;93637.88;5111604;28;20023;-38
2022/01/03 06:21:19;;;;;;;31.20;18.77;;;;;;;-0.27;84.84;93630.50;5112003;28;20039;-38
2022/01/03 06:23:46;;;;;;;72.70;33.70;;;;;;;-0.02;84.58;93633.25;5110481;28;20059;-37
2022/01/03 06:26:11;;;;;;;53.13;28.58;;;;;;;0.00;83.51;93622.66;5107233;28;20019;-39
2022/01/03 06:28:37;;;;;;;93.55;43.08;;;;;;;0.05;82.84;93631.34;5111181;28;20027;-38
2022/01/03 06:31:02;;;;;;;63.78;29.38;;;;;;;0.19;83.93;93639.44;5111631;28;20076;-38
2022/01/03 06:33:28;;;;;;;39.92;20.70;;;;;;;0.24;83.45;93646.16;5111259;28;20024;-37
2022/01/03 06:35:53;;;;;;;28.30;15.98;;;;;;;0.34;82.85;93636.63;5111308;28;20020;-37
2022/01/03 06:38:19;;;;;;;40.58;18.42;;;;;;;0.34;82.93;93633.91;5111107;28;20551;-37
2022/01/03 06:40:44;;;;;;;78.95;33.85;;;;;;;0.45;81.87;93644.88;5111679;28;20032;-38
2022/01/03 06:43:10;;;;;;;49.63;21.58;;;;;;;0.15;81.56;93621.84;5111524;28;20103;-39
2022/01/03 06:45:35;;;;;;;36.50;17.13;;;;;;;0.10;81.58;93644.25;5111475;28;20549;-37
2022/01/03 06:48:01;;;;;;;23.92;12.68;;;;;;;-0.06;83.06;93649.00;5111073;28;20031;-37
2022/01/03 06:50:30;;;;;;;30.63;16.15;;;;;;;0.16;83.03;93643.09;5110294;28;20023;-37
2022/01/03 06:52:56;;;;;;;49.97;23.55;;;;;;;0.35;83.05;93648.94;5110658;28;20076;-37
2022/01/03 06:55:21;;;;;;;52.50;26.83;;;;;;;0.51;83.25;93641.00;5111234;28;20016;-39
2022/01/03 06:57:47;;;;;;;54.65;27.85;;;;;;;0.64;82.56;93638.66;5110832;28;20023;-37
2022/01/03 07:00:13;;;;;;;59.83;34.72;;;;;;;0.81;81.42;93641.50;5110579;28;20047;-39
2022/01/03 07:02:42;;;;;;;61.47;33.78;;;;;;;1.07;80.06;93641.47;5110787;28;20027;-38
2022/01/03 07:05:09;;;;;;;74.03;34.67;;;;;;;1.15;79.15;93642.53;5110970;28;20106;-38
2022/01/03 07:07:34;;;;;;;57.50;30.15;;;;;;;1.29;78.18;93626.06;5111154;28;20250;-38
2022/01/03 07:10:00;;;;;;;59.00;35.58;;;;;;;1.15;77.09;93618.78;5110633;28;20050;-38
2022/01/03 07:12:25;;;;;;;53.13;31.27;;;;;;;0.89;78.95;93625.53;5110970;28;20027;-37
2022/01/03 07:20:01;;;;;;;43.90;25.90;;;;;;;1.18;77.72;93617.06;5110824;28;20034;-38
2022/01/03 07:22:26;;;;;;;51.45;28.27;;;;;;;1.20;77.99;93626.25;5110656;28;20474;-40
2022/01/03 07:24:53;;;;;;;58.58;32.75;;;;;;;1.38;78.54;93623.16;5110764;28;20148;-41
2022/01/03 07:27:19;;;;;;;45.95;26.17;;;;;;;1.56;78.55;93627.44;5111139;28;20095;-39
2022/01/03 07:29:46;;;;;;;54.75;29.00;;;;;;;1.92;77.52;93623.94;5110886;28;20492;-39
2022/01/03 07:32:12;;;;;;;53.25;31.27;;;;;;;2.21;76.25;93620.06;5111057;28;20027;-39
2022/01/03 07:34:38;;;;;;;58.92;35.30;;;;;;;2.54;75.49;93622.13;5110780;28;20043;-38
2022/01/03 07:37:04;;;;;;;142.63;66.82;;;;;;;2.62;74.53;93617.72;5109983;28;20569;-39
2022/01/03 07:39:30;;;;;;;43.10;25.50;;;;;;;2.41;75.41;93616.41;5110188;28;20057;-38
2022/01/03 07:41:58;;;;;;;124.72;56.47;;;;;;;2.45;75.07;93614.94;5110356;28;20024;-39
2022/01/03 07:44:23;;;;;;;63.78;36.58;;;;;;;2.62;76.02;93606.81;5110610;28;20416;-39
2022/01/03 07:46:49;;;;;;;56.30;29.88;;;;;;;3.08;74.47;93602.34;5110486;28;20062;-39
2022/01/03 07:49:15;;;;;;;58.92;30.40;;;;;;;3.29;74.44;93604.84;5110748;28;20080;-37
2022/01/03 07:51:41;;;;;;;53.55;24.48;;;;;;;3.64;73.53;93599.53;5110315;28;20481;-38
2022/01/03 07:54:06;;;;;;;28.13;17.10;;;;;;;4.06;72.12;93593.72;5108408;28;20034;-37
2022/01/03 07:56:33;;;;;;;26.90;14.25;;;;;;;4.30;70.92;93607.50;5108685;28;20023;-38
2022/01/03 07:58:59;;;;;;;45.33;17.17;;;;;;;4.28;70.50;93598.34;5108998;28;20034;-38
2022/01/03 08:01:24;;;;;;;22.83;11.85;;;;;;;4.21;70.22;93598.84;5111500;28;20424;-38
2022/01/03 08:03:50;;;;;;;37.22;12.88;;;;;;;4.18;71.05;93608.06;5113989;28;20484;-38
2022/01/03 08:06:16;;;;;;;23.35;12.18;;;;;;;4.67;70.61;93604.34;5113721;28;20118;-37
2022/01/03 08:08:41;;;;;;;22.58;11.35;;;;;;;4.71;69.33;93579.44;5113367;28;20019;-39
2022/01/03 08:11:07;;;;;;;23.20;12.07;;;;;;;5.29;68.30;93608.09;5113295;28;20087;-38
2022/01/03 08:13:32;;;;;;;20.90;9.23;;;;;;;5.80;66.93;93609.13;5114469;28;20110;-38
2022/01/03 08:15:58;;;;;;;22.98;10.32;;;;;;;6.02;65.04;93611.66;5114696;28;20043;-40
2022/01/03 08:18:24;;;;;;;16.73;8.88;;;;;;;6.20;65.06;93610.19;5114566;27;20176;-39
2022/01/03 08:20:51;;;;;;;27.70;10.70;;;;;;;7.08;62.47;93609.00;5110763;28;20063;-39
2022/01/03 08:23:17;;;;;;;17.45;9.60;;;;;;;6.93;62.22;93603.22;5091874;28;20032;-39
2022/01/03 08:25:43;;;;;;;18.40;10.27;;;;;;;8.22;59.52;93600.53;5091385;28;20028;-38
2022/01/03 08:28:09;;;;;;;16.65;9.95;;;;;;;9.40;56.95;93614.75;5090727;28;20059;-39
2022/01/03 08:30:35;;;;;;;16.65;10.20;;;;;;;9.94;55.03;93606.38;5090470;28;20036;-38
2022/01/03 08:33:02;;;;;;;53.28;31.65;;;;;;;10.62;52.55;93600.56;5091659;28;20035;-39
2022/01/03 08:35:28;;;;;;;30.77;21.00;;;;;;;9.92;52.80;93606.19;5091643;28;20028;-39
2022/01/03 08:37:54;;;;;;;32.38;20.88;;;;;;;10.26;52.64;93606.09;5091591;28;20024;-39
2022/01/03 08:40:19;;;;;;;24.40;15.15;;;;;;;10.06;53.52;93606.09;5089969;28;20524;-38
2022/01/03 08:42:46;;;;;;;26.98;18.52;;;;;;;9.59;54.26;93587.00;5091361;28;20032;-38
2022/01/03 08:45:12;;;;;;;21.15;15.65;;;;;;;9.73;55.67;93586.38;5097840;28;20027;-39
2022/01/03 08:47:38;;;;;;;56.97;35.63;;;;;;;11.00;52.20;93579.34;5111513;27;20032;-39
2022/01/03 08:50:04;;;;;;;26.02;19.20;;;;;;;12.30;50.68;93584.41;5111659;28;20106;-39
2022/01/03 08:52:30;;;;;;;14.13;11.65;;;;;;;13.07;47.84;93582.88;5111587;28;20027;-40
2022/01/03 08:54:56;;;;;;;14.02;9.82;;;;;;;13.51;47.18;93579.13;5109952;28;20022;-39
2022/01/03 08:57:22;;;;;;;18.42;11.60;;;;;;;14.60;45.61;93581.91;5111766;28;20032;-40
2022/01/03 08:59:48;;;;;;;14.45;11.68;;;;;;;15.70;44.74;93576.09;5111357;28;20051;-39
2022/01/03 09:02:16;;;;;;;11.63;10.20;;;;;;;16.41;42.31;93560.63;5111525;27;20031;-40
2022/01/03 09:04:45;;;;;;;12.05;9.52;;;;;;;16.95;41.16;93563.91;5110482;28;20039;-39
2022/01/03 09:07:11;;;;;;;14.35;9.82;;;;;;;16.93;41.30;93558.19;5113692;27;20027;-39
2022/01/03 09:09:36;;;;;;;11.50;10.18;;;;;;;16.82;39.78;93541.28;5116731;27;20443;-40
2022/01/03 09:12:03;;;;;;;18.08;12.82;;;;;;;15.24;43.70;93539.81;5117765;27;20110;-40
2022/01/03 09:14:29;;;;;;;19.13;13.75;;;;;;;15.86;43.47;93522.38;5112461;27;20059;-40
2022/01/03 09:16:55;;;;;;;16.80;11.73;;;;;;;16.08;42.62;93503.06;5110451;28;20078;-40
2022/01/03 09:19:21;;;;;;;24.90;17.10;;;;;;;15.62;43.96;93511.44;5110649;28;20031;-41
2022/01/03 09:21:46;;;;;;;13.23;11.82;;;;;;;15.85;43.83;93523.69;5110664;28;20026;-40
2022/01/03 09:24:28;;;;;;;21.88;16.13;;;;;;;16.31;44.06;93515.28;5110725;28;20484;-40
2022/01/03 09:29:38;;;;;;;18.92;16.80;;;;;;;16.40;42.88;93527.75;5107955;28;20074;-40
2022/01/03 09:32:04;;;;;;;22.13;19.15;;;;;;;16.13;43.60;93536.22;5108515;28;20035;-41
2022/01/03 09:34:30;;;;;;;21.10;18.73;;;;;;;16.62;44.40;93523.84;5109378;28;20023;-41
2022/01/03 09:36:55;;;;;;;11.75;10.55;;;;;;;17.33;42.00;93526.81;5110525;28;20160;-41
2022/01/03 09:39:22;;;;;;;19.98;14.00;;;;;;;18.12;40.65;93519.78;5111009;27;20031;-41
2022/01/03 09:41:59;;;;;;;14.43;12.00;;;;;;;18.86;38.78;93521.19;5110097;28;20109;-41
2022/01/03 09:44:30;;;;;;;25.00;17.83;;;;;;;18.55;38.32;93514.97;5091972;28;20036;-40
2022/01/03 09:46:59;;;;;;;66.32;36.78;;;;;;;17.72;40.17;93494.69;5107510;28;20039;-40
2022/01/03 09:49:25;;;;;;;18.63;14.80;;;;;;;16.43;41.90;93498.72;5108908;28;20529;-40
2022/01/03 09:51:51;;;;;;;21.23;17.50;;;;;;;15.75;44.33;93489.53;5107148;28;20018;-40
2022/01/03 09:54:19;;;;;;;32.78;19.38;;;;;;;15.62;45.21;93494.75;5108170;28;20027;-39
2022/01/03 09:56:45;;;;;;;28.48;20.63;;;;;;;15.72;45.21;93478.81;5108388;28;20049;-40
2022/01/03 09:59:11;;;;;;;35.42;24.55;;;;;;;15.71;45.04;93474.56;5108457;28;20053;-39
2022/01/03 10:01:36;;;;;;;43.95;32.60;;;;;;;16.06;45.45;93478.59;5109753;28;20027;-40
2022/01/03 10:04:03;;;;;;;17.63;15.27;;;;;;;16.38;44.06;93467.03;5109655;28;20023;-40
2022/01/03 10:06:28;;;;;;;13.45;10.18;;;;;;;15.73;44.54;93460.78;5109868;28;20081;-40
2022/01/03 10:08:54;;;;;;;13.40;10.93;;;;;;;15.45;46.29;93455.88;5109574;28;20069;-40
2022/01/03 10:11:22;;;;;;;11.25;9.77;;;;;;;15.90;45.43;93455.13;5109972;28;20051;-39
2022/01/03 10:13:48;;;;;;;19.95;15.27;;;;;;;16.07;44.55;93454.28;5109550;28;20016;-40
2022/01/03 10:16:13;;;;;;;19.75;15.80;;;;;;;16.81;43.12;93448.53;5109368;28;20077;-40
2022/01/03 10:18:39;;;;;;;13.48;10.35;;;;;;;16.86;42.08;93439.16;5109233;28;20046;-40
2022/01/03 10:21:07;;;;;;;9.93;8.50;;;;;;;15.92;43.31;93432.97;5108731;28;20032;-39
2022/01/03 10:23:33;;;;;;;10.65;8.13;;;;;;;15.86;43.72;93440.88;5108806;28;20095;-39
2022/01/03 10:26:14;;;;;;;11.48;9.77;;;;;;;15.79;44.75;93433.41;5108326;28;20061;-40
2022/01/03 10:28:40;;;;;;;13.23;9.88;;;;;;;15.63;44.11;93426.66;5108287;28;20400;-40
2022/01/03 10:31:17;;;;;;;13.25;7.90;;;;;;;15.57;43.88;93415.78;5108857;28;20032;-41
2022/01/03 10:33:43;;;;;;;9.15;7.40;;;;;;;15.30;45.34;93403.22;5109476;28;20396;-41
2022/01/03 10:36:28;;;;;;;14.20;10.57;;;;;;;15.06;47.14;93416.03;5108304;28;20407;-40
2022/01/03 10:38:54;;;;;;;18.20;13.88;;;;;;;14.95;47.77;93413.78;5109602;28;20027;-40
2022/01/03 10:41:22;;;;;;;15.13;10.13;;;;;;;15.00;47.25;93410.75;5095209;28;20081;-41
2022/01/03 10:43:50;;;;;;;10.18;8.90;;;;;;;14.99;46.93;93414.09;5107601;28;20027;-40
2022/01/03 10:46:27;;;;;;;20.25;13.40;;;;;;;14.92;47.69;93401.06;5108155;28;20024;-40
2022/01/03 10:49:20;;;;;;;17.35;12.57;;;;;;;14.65;47.71;93403.81;5102705;28;20034;-40
2022/01/03 10:51:46;;;;;;;25.63;14.25;;;;;;;14.19;48.23;93375.13;5090154;27;20092;-40
2022/01/03 10:54:19;;;;;;;39.90;18.38;;;;;;;14.13;48.82;93383.72;5105570;28;20492;-39
2022/01/03 10:56:48;;;;;;;30.38;16.15;;;;;;;13.84;49.81;93379.28;5108876;28;20024;-41
2022/01/03 10:59:22;;;;;;;18.58;12.95;;;;;;;13.72;50.10;93376.25;5088733;28;20023;-42
2022/01/03 11:01:56;;;;;;;17.75;11.38;;;;;;;13.76;50.95;93375.81;5104356;28;20027;-40
2022/01/03 11:04:25;;;;;;;12.00;8.40;;;;;;;13.94;49.47;93371.75;5105860;28;20016;-42
2022/01/03 11:10:43;;;;;;;10.30;8.25;;;;;;;14.05;49.39;93362.91;5106311;28;20088;-41
2022/01/03 11:13:20;;;;;;;14.02;8.55;;;;;;;14.82;47.24;93350.97;5101786;28;20043;-40
2022/01/03 11:16:04;;;;;;;17.10;11.00;;;;;;;14.43;47.15;93350.03;5103620;28;20019;-41
2022/01/03 11:18:35;;;;;;;18.23;12.13;;;;;;;14.57;48.35;93342.09;5105494;28;20027;-41
2022/01/03 11:21:14;;;;;;;20.33;12.70;;;;;;;14.50;47.81;93339.41;5107534;28;20020;-40
2022/01/03 11:23:42;;;;;;;11.73;8.98;;;;;;;14.39;46.90;93335.84;5107956;28;20049;-40
2022/01/03 11:26:19;;;;;;;9.95;8.45;;;;;;;14.13;48.31;93336.53;5107565;28;20035;-41
2022/01/03 11:28:44;;;;;;;14.25;9.80;;;;;;;13.90;48.09;93346.44;5109382;27;20050;-41
2022/01/03 11:31:14;;;;;;;18.23;10.90;;;;;;;13.71;49.78;93337.97;5109996;28;20468;-43
2022/01/03 11:33:40;;;;;;;17.65;11.63;;;;;;;13.98;49.03;93335.97;5109008;28;20015;-42
2022/01/03 11:36:06;;;;;;;10.30;8.75;;;;;;;14.62;49.76;93332.00;5109631;28;20039;-41
2022/01/03 11:38:35;;;;;;;10.13;7.25;;;;;;;15.57;46.70;93320.44;5109697;28;20547;-41
2022/01/03 11:41:04;;;;;;;11.05;8.10;;;;;;;16.34;45.13;93310.72;5110101;28;20065;-40
2022/01/03 11:43:32;;;;;;;10.93;7.50;;;;;;;17.22;41.25;93321.69;5109430;28;20559;-42